sensor_id;sensor_type;location;lat;lon;timestamp;temperature;humidity
46458;DHT22;32155;54.076;12.092;2022-10-31T00:02:33;11.80;99.90
46458;DHT22;32155;54.076;12.092;2022-10-31T00:05:21;11.90;99.90
46458;DHT22;32155;54.076;12.092;2022-10-31T00:10:50;11.50;99.90
46458;DHT22;32155;54.076;12.092;2022-10-31T00:13:49;11.50;99.90
46458;DHT22;32155;54.076;12.092;2022-10-31T00:16:25;11.50;99.90
46458;DHT22;32155;54.076;12.092;2022-10-31T00:19:09;11.50;99.90
46458;DHT22;32155;54.076;12.092;2022-10-31T00:21:40;11.50;99.90
46458;DHT22;32155;54.076;12.092;2022-10-31T00:24:10;11.50;99.90
46458;DHT22;32155;54.076;12.092;2022-10-31T00:27:04;11.50;99.90
46458;DHT22;32155;54.076;12.092;2022-10-31T00:29:44;11.50;99.90
46458;DHT22;32155;54.076;12.092;2022-10-31T00:32:18;11.50;99.90
46458;DHT22;32155;54.076;12.092;2022-10-31T00:34:51;11.40;99.90
46458;DHT22;32155;54.076;12.092;2022-10-31T00:37:37;11.20;99.90
46458;DHT22;32155;54.076;12.092;2022-10-31T00:46:28;11.00;99.90
46458;DHT22;32155;54.076;12.092;2022-10-31T00:49:01;10.90;99.90
46458;DHT22;32155;54.076;12.092;2022-10-31T00:52:13;10.80;99.90
46458;DHT22;32155;54.076;12.092;2022-10-31T00:54:59;10.80;99.90
46458;DHT22;32155;54.076;12.092;2022-10-31T01:00:39;10.70;99.90
46458;DHT22;32155;54.076;12.092;2022-10-31T01:03:18;10.70;99.90
46458;DHT22;32155;54.076;12.092;2022-10-31T01:05:57;10.80;99.90
46458;DHT22;32155;54.076;12.092;2022-10-31T01:08:33;10.70;99.90
46458;DHT22;32155;54.076;12.092;2022-10-31T01:11:21;10.70;99.90
46458;DHT22;32155;54.076;12.092;2022-10-31T01:17:07;11.00;99.90
46458;DHT22;32155;54.076;12.092;2022-10-31T01:20:01;10.90;99.90
46458;DHT22;32155;54.076;12.092;2022-10-31T01:25:32;10.90;99.90
46458;DHT22;32155;54.076;12.092;2022-10-31T01:28:19;10.60;99.90
46458;DHT22;32155;54.076;12.092;2022-10-31T01:31:07;10.50;99.90
46458;DHT22;32155;54.076;12.092;2022-10-31T01:36:43;10.50;99.90
46458;DHT22;32155;54.076;12.092;2022-10-31T01:39:18;10.40;99.90
46458;DHT22;32155;54.076;12.092;2022-10-31T01:41:59;10.40;99.90
46458;DHT22;32155;54.076;12.092;2022-10-31T01:44:56;10.40;99.90
46458;DHT22;32155;54.076;12.092;2022-10-31T01:56:58;10.40;99.90
46458;DHT22;32155;54.076;12.092;2022-10-31T01:59:56;10.50;99.90
46458;DHT22;32155;54.076;12.092;2022-10-31T02:02:45;10.60;99.90
46458;DHT22;32155;54.076;12.092;2022-10-31T02:11:33;10.50;99.90
46458;DHT22;32155;54.076;12.092;2022-10-31T02:14:29;10.60;99.90
46458;DHT22;32155;54.076;12.092;2022-10-31T02:33:30;10.60;99.90
46458;DHT22;32155;54.076;12.092;2022-10-31T02:38:36;10.70;99.90
46458;DHT22;32155;54.076;12.092;2022-10-31T02:46:20;10.70;99.90
46458;DHT22;32155;54.076;12.092;2022-10-31T02:48:49;10.70;99.90
46458;DHT22;32155;54.076;12.092;2022-10-31T02:51:16;10.70;99.90
46458;DHT22;32155;54.076;12.092;2022-10-31T02:53:42;10.80;99.90
46458;DHT22;32155;54.076;12.092;2022-10-31T02:56:15;10.70;99.90
46458;DHT22;32155;54.076;12.092;2022-10-31T03:01:17;10.50;99.90
46458;DHT22;32155;54.076;12.092;2022-10-31T03:11:29;10.40;99.90
46458;DHT22;32155;54.076;12.092;2022-10-31T03:19:09;10.70;99.90
46458;DHT22;32155;54.076;12.092;2022-10-31T03:21:36;10.70;99.90
46458;DHT22;32155;54.076;12.092;2022-10-31T03:24:03;10.70;99.90
46458;DHT22;32155;54.076;12.092;2022-10-31T03:26:30;10.50;99.90
46458;DHT22;32155;54.076;12.092;2022-10-31T03:31:23;10.40;99.90
46458;DHT22;32155;54.076;12.092;2022-10-31T03:33:50;10.30;99.90
46458;DHT22;32155;54.076;12.092;2022-10-31T03:36:16;10.30;99.90
46458;DHT22;32155;54.076;12.092;2022-10-31T03:38:42;10.50;99.90
46458;DHT22;32155;54.076;12.092;2022-10-31T03:41:10;10.60;99.90
46458;DHT22;32155;54.076;12.092;2022-10-31T03:43:37;10.50;99.90
46458;DHT22;32155;54.076;12.092;2022-10-31T03:55:11;10.60;99.90
46458;DHT22;32155;54.076;12.092;2022-10-31T03:58:10;10.60;99.90
46458;DHT22;32155;54.076;12.092;2022-10-31T04:01:08;10.60;99.90
46458;DHT22;32155;54.076;12.092;2022-10-31T04:10:48;10.50;99.90
46458;DHT22;32155;54.076;12.092;2022-10-31T04:16:55;10.40;99.90
46458;DHT22;32155;54.076;12.092;2022-10-31T04:19:58;10.30;99.90
46458;DHT22;32155;54.076;12.092;2022-10-31T04:22:53;10.20;99.90
46458;DHT22;32155;54.076;12.092;2022-10-31T04:25:24;10.20;99.90
46458;DHT22;32155;54.076;12.092;2022-10-31T04:27:55;10.30;99.90
46458;DHT22;32155;54.076;12.092;2022-10-31T04:30:44;10.30;99.90
46458;DHT22;32155;54.076;12.092;2022-10-31T04:33:30;10.30;99.90
46458;DHT22;32155;54.076;12.092;2022-10-31T04:35:55;10.30;99.90
46458;DHT22;32155;54.076;12.092;2022-10-31T04:38:23;10.40;99.90
46458;DHT22;32155;54.076;12.092;2022-10-31T04:41:03;10.50;99.90
46458;DHT22;32155;54.076;12.092;2022-10-31T04:43:37;10.60;99.90
46458;DHT22;32155;54.076;12.092;2022-10-31T04:46:14;10.60;99.90
46458;DHT22;32155;54.076;12.092;2022-10-31T04:48:57;10.60;99.90
46458;DHT22;32155;54.076;12.092;2022-10-31T04:57:27;10.80;99.90
46458;DHT22;32155;54.076;12.092;2022-10-31T05:00:05;10.80;99.90
46458;DHT22;32155;54.076;12.092;2022-10-31T05:05:44;10.80;99.90
46458;DHT22;32155;54.076;12.092;2022-10-31T05:08:13;10.80;99.90
46458;DHT22;32155;54.076;12.092;2022-10-31T05:10:53;10.90;99.90
46458;DHT22;32155;54.076;12.092;2022-10-31T05:13:44;11.00;99.90
46458;DHT22;32155;54.076;12.092;2022-10-31T05:22:10;11.00;99.90
46458;DHT22;32155;54.076;12.092;2022-10-31T05:31:15;11.20;99.90
46458;DHT22;32155;54.076;12.092;2022-10-31T05:34:06;11.20;99.90
46458;DHT22;32155;54.076;12.092;2022-10-31T05:36:34;11.30;99.90
46458;DHT22;32155;54.076;12.092;2022-10-31T05:39:25;11.20;99.90
46458;DHT22;32155;54.076;12.092;2022-10-31T05:41:56;11.20;99.90
46458;DHT22;32155;54.076;12.092;2022-10-31T06:05:19;11.70;99.90
46458;DHT22;32155;54.076;12.092;2022-10-31T11:26:42;16.70;99.90
46458;DHT22;32155;54.076;12.092;2022-10-31T11:38:47;16.60;99.90
46458;DHT22;32155;54.076;12.092;2022-10-31T11:41:39;16.40;99.90
46458;DHT22;32155;54.076;12.092;2022-10-31T12:02:35;16.10;99.90
46458;DHT22;32155;54.076;12.092;2022-10-31T12:05:30;16.20;99.90
46458;DHT22;32155;54.076;12.092;2022-10-31T12:57:54;15.20;99.90
46458;DHT22;32155;54.076;12.092;2022-10-31T13:07:15;15.00;99.90
46458;DHT22;32155;54.076;12.092;2022-10-31T13:22:58;14.70;99.90
46458;DHT22;32155;54.076;12.092;2022-10-31T13:31:58;14.70;99.90
46458;DHT22;32155;54.076;12.092;2022-10-31T13:50:30;14.70;99.90
46458;DHT22;32155;54.076;12.092;2022-10-31T14:08:53;14.40;99.90
46458;DHT22;32155;54.076;12.092;2022-10-31T15:11:45;13.80;99.90
46458;DHT22;32155;54.076;12.092;2022-10-31T15:14:51;13.80;99.90
46458;DHT22;32155;54.076;12.092;2022-10-31T17:46:09;13.40;99.90
46458;DHT22;32155;54.076;12.092;2022-10-31T17:48:36;13.30;99.90
46458;DHT22;32155;54.076;12.092;2022-10-31T17:51:03;13.40;99.90
46458;DHT22;32155;54.076;12.092;2022-10-31T17:53:31;13.40;99.90
46458;DHT22;32155;54.076;12.092;2022-10-31T17:56:04;13.30;99.90
46458;DHT22;32155;54.076;12.092;2022-10-31T17:58:33;13.40;99.90
46458;DHT22;32155;54.076;12.092;2022-10-31T18:01:06;13.30;99.90
46458;DHT22;32155;54.076;12.092;2022-10-31T18:03:31;13.30;99.90
46458;DHT22;32155;54.076;12.092;2022-10-31T18:05:57;13.40;99.90
46458;DHT22;32155;54.076;12.092;2022-10-31T18:08:27;13.30;99.90
46458;DHT22;32155;54.076;12.092;2022-10-31T18:10:53;13.30;99.90
46458;DHT22;32155;54.076;12.092;2022-10-31T18:13:19;13.30;99.90
46458;DHT22;32155;54.076;12.092;2022-10-31T18:15:47;13.30;99.90
46458;DHT22;32155;54.076;12.092;2022-10-31T18:18:12;13.30;99.90
46458;DHT22;32155;54.076;12.092;2022-10-31T18:20:38;13.30;99.90
46458;DHT22;32155;54.076;12.092;2022-10-31T18:23:05;13.30;99.90
46458;DHT22;32155;54.076;12.092;2022-10-31T18:25:30;13.30;99.90
46458;DHT22;32155;54.076;12.092;2022-10-31T18:27:56;13.40;99.90
46458;DHT22;32155;54.076;12.092;2022-10-31T18:30:21;13.30;99.90
46458;DHT22;32155;54.076;12.092;2022-10-31T18:32:50;13.30;99.90
46458;DHT22;32155;54.076;12.092;2022-10-31T18:35:16;13.30;99.90
46458;DHT22;32155;54.076;12.092;2022-10-31T18:37:41;13.30;99.90
46458;DHT22;32155;54.076;12.092;2022-10-31T18:40:07;13.30;99.90
46458;DHT22;32155;54.076;12.092;2022-10-31T18:42:33;13.30;99.90
46458;DHT22;32155;54.076;12.092;2022-10-31T18:44:58;13.20;99.90
46458;DHT22;32155;54.076;12.092;2022-10-31T18:47:24;13.30;99.90
46458;DHT22;32155;54.076;12.092;2022-10-31T18:49:49;13.30;99.90
46458;DHT22;32155;54.076;12.092;2022-10-31T18:52:17;13.20;99.90
46458;DHT22;32155;54.076;12.092;2022-10-31T18:54:44;13.20;99.90
46458;DHT22;32155;54.076;12.092;2022-10-31T18:57:11;13.20;99.90
46458;DHT22;32155;54.076;12.092;2022-10-31T18:59:37;13.20;99.90
46458;DHT22;32155;54.076;12.092;2022-10-31T19:02:03;13.20;99.90
46458;DHT22;32155;54.076;12.092;2022-10-31T19:04:28;13.10;99.90
46458;DHT22;32155;54.076;12.092;2022-10-31T19:06:54;13.10;99.90
46458;DHT22;32155;54.076;12.092;2022-10-31T19:09:19;13.00;99.90
46458;DHT22;32155;54.076;12.092;2022-10-31T19:11:45;13.00;99.90
46458;DHT22;32155;54.076;12.092;2022-10-31T19:14:11;13.00;99.90
46458;DHT22;32155;54.076;12.092;2022-10-31T19:16:39;13.00;99.90
46458;DHT22;32155;54.076;12.092;2022-10-31T19:19:05;13.00;99.90
46458;DHT22;32155;54.076;12.092;2022-10-31T19:21:30;13.00;99.90
46458;DHT22;32155;54.076;12.092;2022-10-31T19:23:57;12.90;99.90
46458;DHT22;32155;54.076;12.092;2022-10-31T19:26:23;13.00;99.90
46458;DHT22;32155;54.076;12.092;2022-10-31T19:28:49;13.00;99.90
46458;DHT22;32155;54.076;12.092;2022-10-31T19:31:15;12.90;99.90
46458;DHT22;32155;54.076;12.092;2022-10-31T19:33:44;13.00;99.90
46458;DHT22;32155;54.076;12.092;2022-10-31T19:36:12;12.90;99.90
46458;DHT22;32155;54.076;12.092;2022-10-31T19:38:38;12.90;99.90
46458;DHT22;32155;54.076;12.092;2022-10-31T19:41:05;12.90;99.90
46458;DHT22;32155;54.076;12.092;2022-10-31T19:43:31;12.90;99.90
46458;DHT22;32155;54.076;12.092;2022-10-31T19:45:57;12.80;99.90
46458;DHT22;32155;54.076;12.092;2022-10-31T19:48:23;12.80;99.90
46458;DHT22;32155;54.076;12.092;2022-10-31T19:50:48;12.90;99.90
46458;DHT22;32155;54.076;12.092;2022-10-31T19:53:14;12.80;99.90
46458;DHT22;32155;54.076;12.092;2022-10-31T19:55:39;12.80;99.90
46458;DHT22;32155;54.076;12.092;2022-10-31T19:58:05;12.80;99.90
46458;DHT22;32155;54.076;12.092;2022-10-31T20:00:30;12.90;99.90
46458;DHT22;32155;54.076;12.092;2022-10-31T20:02:56;12.90;99.90
46458;DHT22;32155;54.076;12.092;2022-10-31T20:05:22;12.90;99.90
46458;DHT22;32155;54.076;12.092;2022-10-31T20:07:48;12.90;99.90
46458;DHT22;32155;54.076;12.092;2022-10-31T20:10:13;13.00;99.90
46458;DHT22;32155;54.076;12.092;2022-10-31T20:12:41;13.00;99.90
46458;DHT22;32155;54.076;12.092;2022-10-31T20:15:07;13.10;99.90
46458;DHT22;32155;54.076;12.092;2022-10-31T20:17:33;13.10;99.90
46458;DHT22;32155;54.076;12.092;2022-10-31T20:19:59;13.00;99.90
46458;DHT22;32155;54.076;12.092;2022-10-31T20:22:31;13.00;99.90
46458;DHT22;32155;54.076;12.092;2022-10-31T20:24:56;13.00;99.90
46458;DHT22;32155;54.076;12.092;2022-10-31T20:27:22;13.00;99.90
46458;DHT22;32155;54.076;12.092;2022-10-31T20:29:47;13.00;99.90
46458;DHT22;32155;54.076;12.092;2022-10-31T20:32:13;13.10;99.90
46458;DHT22;32155;54.076;12.092;2022-10-31T20:34:38;13.10;99.90
46458;DHT22;32155;54.076;12.092;2022-10-31T20:37:04;13.20;99.90
46458;DHT22;32155;54.076;12.092;2022-10-31T20:39:29;13.20;99.90
46458;DHT22;32155;54.076;12.092;2022-10-31T20:41:56;13.20;99.90
46458;DHT22;32155;54.076;12.092;2022-10-31T20:44:21;13.20;99.90
46458;DHT22;32155;54.076;12.092;2022-10-31T20:46:47;13.20;99.90
46458;DHT22;32155;54.076;12.092;2022-10-31T20:49:12;13.20;99.90
46458;DHT22;32155;54.076;12.092;2022-10-31T20:51:38;13.20;99.90
46458;DHT22;32155;54.076;12.092;2022-10-31T20:54:03;13.30;99.90
46458;DHT22;32155;54.076;12.092;2022-10-31T20:56:31;13.30;99.90
46458;DHT22;32155;54.076;12.092;2022-10-31T20:58:56;13.30;99.90
46458;DHT22;32155;54.076;12.092;2022-10-31T21:01:23;13.20;99.90
46458;DHT22;32155;54.076;12.092;2022-10-31T21:03:49;13.20;99.90
46458;DHT22;32155;54.076;12.092;2022-10-31T21:06:15;13.30;99.90
46458;DHT22;32155;54.076;12.092;2022-10-31T21:08:41;13.30;99.90
46458;DHT22;32155;54.076;12.092;2022-10-31T21:11:09;13.30;99.90
46458;DHT22;32155;54.076;12.092;2022-10-31T21:13:36;13.30;99.90
46458;DHT22;32155;54.076;12.092;2022-10-31T21:16:03;13.30;99.90
46458;DHT22;32155;54.076;12.092;2022-10-31T21:18:29;13.30;99.90
46458;DHT22;32155;54.076;12.092;2022-10-31T21:20:55;13.30;99.90
46458;DHT22;32155;54.076;12.092;2022-10-31T21:23:20;13.30;99.90
46458;DHT22;32155;54.076;12.092;2022-10-31T21:25:46;13.30;99.90
46458;DHT22;32155;54.076;12.092;2022-10-31T21:28:11;13.30;99.90
46458;DHT22;32155;54.076;12.092;2022-10-31T21:30:41;13.30;99.90
46458;DHT22;32155;54.076;12.092;2022-10-31T21:33:06;13.30;99.90
46458;DHT22;32155;54.076;12.092;2022-10-31T21:35:35;13.30;99.90
46458;DHT22;32155;54.076;12.092;2022-10-31T21:38:00;13.30;99.90
46458;DHT22;32155;54.076;12.092;2022-10-31T21:40:26;13.30;99.90
46458;DHT22;32155;54.076;12.092;2022-10-31T21:42:54;13.30;99.90
46458;DHT22;32155;54.076;12.092;2022-10-31T21:45:19;13.30;99.90
46458;DHT22;32155;54.076;12.092;2022-10-31T21:47:47;13.30;99.90
46458;DHT22;32155;54.076;12.092;2022-10-31T21:50:12;13.30;99.90
46458;DHT22;32155;54.076;12.092;2022-10-31T21:52:38;13.30;99.90
46458;DHT22;32155;54.076;12.092;2022-10-31T21:55:03;13.30;99.90
46458;DHT22;32155;54.076;12.092;2022-10-31T21:57:29;13.30;99.90
46458;DHT22;32155;54.076;12.092;2022-10-31T21:59:57;13.30;99.90
46458;DHT22;32155;54.076;12.092;2022-10-31T22:02:22;13.40;99.90
46458;DHT22;32155;54.076;12.092;2022-10-31T22:04:48;13.40;99.90
46458;DHT22;32155;54.076;12.092;2022-10-31T22:07:16;13.40;99.90
46458;DHT22;32155;54.076;12.092;2022-10-31T22:09:42;13.40;99.90
46458;DHT22;32155;54.076;12.092;2022-10-31T22:12:12;13.40;99.90
46458;DHT22;32155;54.076;12.092;2022-10-31T22:14:37;13.40;99.90
46458;DHT22;32155;54.076;12.092;2022-10-31T22:17:03;13.50;99.90
46458;DHT22;32155;54.076;12.092;2022-10-31T22:19:28;13.40;99.90
46458;DHT22;32155;54.076;12.092;2022-10-31T22:21:54;13.50;99.90
46458;DHT22;32155;54.076;12.092;2022-10-31T22:24:19;13.50;99.90
46458;DHT22;32155;54.076;12.092;2022-10-31T22:26:45;13.40;99.90
46458;DHT22;32155;54.076;12.092;2022-10-31T22:29:11;13.40;99.90
46458;DHT22;32155;54.076;12.092;2022-10-31T22:31:38;13.40;99.90
46458;DHT22;32155;54.076;12.092;2022-10-31T22:34:06;13.40;99.90
46458;DHT22;32155;54.076;12.092;2022-10-31T22:36:31;13.40;99.90
46458;DHT22;32155;54.076;12.092;2022-10-31T22:38:57;13.30;99.90
46458;DHT22;32155;54.076;12.092;2022-10-31T22:41:24;13.30;99.90
46458;DHT22;32155;54.076;12.092;2022-10-31T22:43:56;13.40;99.90
46458;DHT22;32155;54.076;12.092;2022-10-31T22:46:25;13.30;99.90
46458;DHT22;32155;54.076;12.092;2022-10-31T22:48:52;13.30;99.90
46458;DHT22;32155;54.076;12.092;2022-10-31T22:51:22;13.20;99.90
46458;DHT22;32155;54.076;12.092;2022-10-31T22:53:48;13.20;99.90
46458;DHT22;32155;54.076;12.092;2022-10-31T22:56:15;13.20;99.90
46458;DHT22;32155;54.076;12.092;2022-10-31T22:58:41;13.20;99.90
46458;DHT22;32155;54.076;12.092;2022-10-31T23:01:08;13.10;99.90
46458;DHT22;32155;54.076;12.092;2022-10-31T23:03:37;13.10;99.90
46458;DHT22;32155;54.076;12.092;2022-10-31T23:06:03;13.10;99.90
46458;DHT22;32155;54.076;12.092;2022-10-31T23:08:32;13.10;99.90
46458;DHT22;32155;54.076;12.092;2022-10-31T23:11:01;13.10;99.90
46458;DHT22;32155;54.076;12.092;2022-10-31T23:13:27;13.10;99.90
46458;DHT22;32155;54.076;12.092;2022-10-31T23:16:12;13.10;99.90
46458;DHT22;32155;54.076;12.092;2022-10-31T23:18:37;13.10;99.90
46458;DHT22;32155;54.076;12.092;2022-10-31T23:21:04;13.10;99.90
46458;DHT22;32155;54.076;12.092;2022-10-31T23:23:34;13.20;99.90
46458;DHT22;32155;54.076;12.092;2022-10-31T23:25:59;13.10;99.90
46458;DHT22;32155;54.076;12.092;2022-10-31T23:28:44;13.00;99.90
46458;DHT22;32155;54.076;12.092;2022-10-31T23:31:09;13.00;99.90
46458;DHT22;32155;54.076;12.092;2022-10-31T23:33:35;13.00;99.90
46458;DHT22;32155;54.076;12.092;2022-10-31T23:36:00;13.00;99.90
46458;DHT22;32155;54.076;12.092;2022-10-31T23:38:26;13.00;99.90
46458;DHT22;32155;54.076;12.092;2022-10-31T23:40:51;13.00;99.90
46458;DHT22;32155;54.076;12.092;2022-10-31T23:43:17;13.10;99.90
